createdAt,value
2018-06-13T00:05:01.834Z,2.8
2018-06-13T00:10:56.758Z,3.23
2018-06-13T00:16:51.741Z,3.63
2018-06-13T00:22:46.723Z,3.77
2018-06-13T00:28:41.733Z,3.01
2018-06-13T00:34:36.829Z,2.69
2018-06-13T00:40:31.786Z,3.44
2018-06-13T00:46:26.761Z,3.09
2018-06-13T00:52:21.780Z,3.08
2018-06-13T00:58:16.782Z,4.01
2018-06-13T01:04:11.735Z,3.26
2018-06-13T01:10:07.308Z,3.32
2018-06-13T01:16:01.803Z,3.15
2018-06-13T01:21:56.752Z,3.43
2018-06-13T01:27:51.815Z,2.73
2018-06-13T01:33:46.808Z,3.29
2018-06-13T01:39:41.772Z,3.61
2018-06-13T01:45:36.746Z,3.36
2018-06-13T01:51:31.814Z,3.52
2018-06-13T01:57:26.775Z,3.32
2018-06-13T02:03:21.866Z,3.84
2018-06-13T02:09:16.825Z,3.49
2018-06-13T02:15:11.941Z,3.17
2018-06-13T02:21:06.895Z,3.64
2018-06-13T02:27:01.822Z,3.42
2018-06-13T02:32:56.827Z,3.77
2018-06-13T02:38:51.814Z,3.22
2018-06-13T02:44:46.858Z,3.22
2018-06-13T02:50:41.813Z,4.02
2018-06-13T02:56:36.835Z,3.04
2018-06-13T03:02:31.856Z,3.58
2018-06-13T03:08:26.841Z,4.1
2018-06-13T03:14:21.849Z,3.62
2018-06-13T03:20:16.837Z,4
2018-06-13T03:26:11.871Z,4.55
2018-06-13T03:32:06.929Z,4.41
2018-06-13T08:04:24.944Z,4.38
2018-06-13T08:10:19.937Z,4.25
2018-06-13T08:16:14.932Z,4.45
2018-06-13T08:22:09.954Z,3.28
2018-06-13T08:28:04.972Z,3.74
2018-06-13T08:33:59.901Z,3.72
2018-06-13T08:39:54.976Z,3.27
2018-06-13T08:45:49.972Z,3.39
2018-06-13T08:51:44.988Z,2.93
2018-06-13T08:57:39.949Z,3.17
2018-06-13T09:03:34.974Z,2.73
2018-06-13T09:09:30.000Z,2.87
2018-06-13T09:15:25.016Z,2.74
2018-06-13T09:21:19.976Z,2.76
2018-06-13T09:27:14.976Z,2.8
2018-06-13T09:33:09.960Z,2.04
2018-06-13T09:39:12.874Z,1.91
2018-06-13T09:46:21.200Z,2.01
2018-06-13T09:51:00.075Z,1.96
2018-06-13T09:56:50.051Z,2.02
2018-06-13T10:02:45.012Z,2.64
2018-06-13T10:08:55.581Z,2
2018-06-13T10:14:35.057Z,1.77
2018-06-13T10:20:30.061Z,2.04
2018-06-13T10:26:30.106Z,2.04
2018-06-13T10:32:25.630Z,1.79
2018-06-13T10:38:15.051Z,1.83
2018-06-13T10:44:10.093Z,1.97
2018-06-13T10:50:05.185Z,1.13
2018-06-13T10:56:07.543Z,0.98
2018-06-13T11:01:55.031Z,1.05
2018-06-13T11:07:50.054Z,1.41
2018-06-13T11:13:45.093Z,1.09
2018-06-13T11:19:40.081Z,1.18
2018-06-13T11:31:30.150Z,1.26
2018-06-13T11:37:25.119Z,1.35
2018-06-13T11:43:20.113Z,1.1
2018-06-13T11:49:15.081Z,1.61
2018-06-13T11:55:10.106Z,1.45
2018-06-13T12:01:05.135Z,1.35
2018-06-13T12:07:00.099Z,1.45
2018-06-13T12:12:55.136Z,1.74
2018-06-13T12:18:50.725Z,1.53
2018-06-13T12:24:45.224Z,1.55
2018-06-13T12:30:44.295Z,1.34
2018-06-13T12:36:35.282Z,1.64
2018-06-13T12:42:36.154Z,1.14
2018-06-13T12:48:42.160Z,1.38
2018-06-13T12:55:37.366Z,1.63
2018-06-13T13:00:15.177Z,1.29
2018-06-13T13:06:10.156Z,1.47
2018-06-13T13:12:05.179Z,1.53
2018-06-13T13:18:00.427Z,1.61
2018-06-13T13:23:55.235Z,1.69
2018-06-13T13:29:50.219Z,1.25
2018-06-13T13:35:45.296Z,1.99
2018-06-13T13:41:44.298Z,1.53
2018-06-13T13:47:35.193Z,1.42
2018-06-13T13:53:30.195Z,1.56
2018-06-13T13:59:25.276Z,2.28
2018-06-13T14:05:20.247Z,1.47
2018-06-13T14:11:15.311Z,1.29
2018-06-13T14:17:10.261Z,2.09
2018-06-13T14:23:05.254Z,1.86
2018-06-13T14:29:00.231Z,1.55
2018-06-13T14:34:55.234Z,1.62
2018-06-13T14:40:50.323Z,2.82
2018-06-13T14:46:45.253Z,2.38
2018-06-13T14:52:40.279Z,2.33
2018-06-13T14:58:35.287Z,2.43
2018-06-13T15:04:30.252Z,3.24
2018-06-13T15:10:25.304Z,3.09
2018-06-13T15:16:20.274Z,2.77
2018-06-13T15:22:15.277Z,2.75
2018-06-13T15:28:10.296Z,2.95
2018-06-13T15:34:05.351Z,2.53
2018-06-13T15:40:00.320Z,2.71
2018-06-13T15:45:55.269Z,2.69
2018-06-13T15:51:50.304Z,2.61
2018-06-13T15:57:45.336Z,2.87
2018-06-13T16:03:40.390Z,2.47
2018-06-13T16:09:35.404Z,2.77
2018-06-13T16:15:30.306Z,2.9
2018-06-13T16:21:25.295Z,3.8
2018-06-13T16:27:20.323Z,4.2
2018-06-13T16:33:15.374Z,2.99
2018-06-13T16:39:10.370Z,2.77
2018-06-13T16:45:05.339Z,2.97
2018-06-13T16:51:00.309Z,3.34
2018-06-13T16:56:55.342Z,3.63
2018-06-13T17:02:50.411Z,3.66
2018-06-13T17:08:45.397Z,3.09
2018-06-13T17:14:40.377Z,3.37
2018-06-13T17:20:35.380Z,3.62
2018-06-13T17:26:30.348Z,3.77
2018-06-13T17:32:25.364Z,4.45
2018-06-13T17:38:20.462Z,3.45
2018-06-13T17:44:15.398Z,4.17
2018-06-13T17:50:10.393Z,4.89
2018-06-13T17:56:05.425Z,3.9
2018-06-13T18:02:00.369Z,3.93
2018-06-13T18:07:55.411Z,5.09
2018-06-13T18:13:50.413Z,4.62
2018-06-13T18:19:45.509Z,4.65
2018-06-13T18:25:40.380Z,4.54
2018-06-13T18:31:35.458Z,3.93
2018-06-13T18:37:30.408Z,3.43
2018-06-13T18:43:25.452Z,4.9
2018-06-13T18:49:20.404Z,3.88
2018-06-13T18:55:15.430Z,4.02
2018-06-13T19:01:10.576Z,2.89
2018-06-13T19:07:10.484Z,2.75
2018-06-13T19:13:07.557Z,3.05
2018-06-13T19:18:55.468Z,2.77
2018-06-13T19:24:50.505Z,3.53
2018-06-13T19:30:45.503Z,3.35
2018-06-13T19:36:40.600Z,3.18
2018-06-13T19:42:35.493Z,4.11
2018-06-13T19:48:30.640Z,3.93
2018-06-13T19:54:25.644Z,3.7
2018-06-13T20:00:20.533Z,3.6
2018-06-13T20:06:15.506Z,3.37
2018-06-13T20:12:10.513Z,3.69
2018-06-13T20:24:00.518Z,4.3
2018-06-13T20:29:55.641Z,3.88
2018-06-13T20:41:45.557Z,3.96
2018-06-13T20:47:40.566Z,3.26
2018-06-13T20:53:42.635Z,4.23
2018-06-13T20:59:34.684Z,3.65
2018-06-13T21:05:25.560Z,3.6
2018-06-13T21:11:23.627Z,4.49
2018-06-13T21:17:20.760Z,4.13
2018-06-13T21:23:11.593Z,3.93
2018-06-13T21:29:05.560Z,4.5
2018-06-13T21:35:05.645Z,3.71
2018-06-13T21:40:59.676Z,4.11
2018-06-13T21:46:53.582Z,4.25
2018-06-13T21:52:45.593Z,3.95
2018-06-13T21:58:51.727Z,3.59
2018-06-13T22:04:39.674Z,3.81
2018-06-13T22:10:46.270Z,3.58
2018-06-13T22:16:30.721Z,3.77
2018-06-13T22:22:26.718Z,4.08
2018-06-13T22:28:15.701Z,3.65
2018-06-13T22:34:10.661Z,4.02
2018-06-13T22:40:05.697Z,3.56
2018-06-13T22:46:00.651Z,3.79
2018-06-13T22:51:55.656Z,3.67
2018-06-13T22:57:50.636Z,3.53
2018-06-13T23:03:45.700Z,3.68
2018-06-13T23:09:40.604Z,4
2018-06-13T23:15:35.664Z,4.46
2018-06-13T23:21:30.664Z,3.4
2018-06-13T23:27:25.675Z,3.79
2018-06-13T23:33:20.653Z,3.78
2018-06-13T23:39:15.711Z,4.27
2018-06-13T23:45:10.681Z,3.78
2018-06-13T23:51:05.669Z,3.9
2018-06-13T23:57:00.692Z,4.19
